PWSweather.com
Personal Weather Stations
Station Observations
SHAHALMS1
Eftra, Falkenberg, HA

EftraFalkenberg, HA

Lat: 56.85, Lon: 12.65

Elevation: 140

Station Type:

http://hem.passagen.se/risarp101

High Low Average
Temperature 49.3°F9.6°C 36.7°F2.6°C 43.3°F6.3°C
Dew Point 43.7°F6.5°C 21.6°F-5.8°C 28.0°F-2.2°C
Winds 9.2 mph 14.8 kmh Calm Calm 5.0 mph WNW8.0 kmh WNW
Wind Gusts 24.3 mph39.1 kmh -- 11.0 mph17.7 kmh
Humidity 81% 38% 55%
Pressure 29.62 in1003.0 mb 29.33 in993.2 mb -
Precipitation 0.00 in0.0 mm - -
Hour Temp Dew Point Humidity Winds Wind Gusts Pressure Precip Precip Rate Daily Precip Total
12:00 AM 41.4°F5.2°C 26.4°F-3.1°C 55% 4.7 mph NW7.6 kmh NW 9.7 mph15.6 kmh 29.33 in993.2 mb 0.00 in0.0 mm 0.00 in0.0 mm 0.00 in0.0 mm
12:15 AM 41.0°F5.0°C 26.1°F-3.3°C 55% 4.5 mph NW7.2 kmh NW 8.9 mph14.3 kmh 29.33 in993.2 mb 0.00 in0.0 mm 0.00 in0.0 mm 0.00 in0.0 mm
12:30 AM 40.1°F4.5°C 25.6°F-3.6°C 56% 3.3 mph NW5.3 kmh NW 6.8 mph10.9 kmh 29.36 in994.2 mb 0.00 in0.0 mm 0.00 in0.0 mm 0.00 in0.0 mm
12:45 AM 39.6°F4.2°C 25.1°F-3.8°C 56% 2.6 mph NW4.2 kmh NW 5.7 mph9.2 kmh 29.36 in994.2 mb 0.00 in0.0 mm 0.00 in0.0 mm 0.00 in0.0 mm
01:00 AM 38.8°F3.8°C 24.9°F-3.9°C 57% 1.4 mph W2.3 kmh W 5.0 mph8.0 kmh 29.36 in994.2 mb 0.00 in0.0 mm 0.00 in0.0 mm 0.00 in0.0 mm
01:15 AM 38.3°F3.5°C 24.8°F-4.0°C 58% 2.3 mph W3.7 kmh W 7.9 mph12.7 kmh 29.36 in994.2 mb 0.00 in0.0 mm 0.00 in0.0 mm 0.00 in0.0 mm
01:30 AM 37.8°F3.2°C 24.7°F-4.1°C 59% 0.5 mph W0.8 kmh W 3.9 mph6.3 kmh 29.36 in994.2 mb 0.00 in0.0 mm 0.00 in0.0 mm 0.00 in0.0 mm
01:45 AM 37.6°F3.1°C 24.9°F-3.9°C 60% 0.3 mph W0.5 kmh W 3.6 mph5.8 kmh 29.36 in994.2 mb 0.00 in0.0 mm 0.00 in0.0 mm 0.00 in0.0 mm
02:00 AM 37.9°F3.3°C 25.3°F-3.7°C 60% 2.2 mph N3.5 kmh N 6.1 mph9.8 kmh 29.36 in994.2 mb 0.00 in0.0 mm 0.00 in0.0 mm 0.00 in0.0 mm
02:15 AM 38.3°F3.5°C 25.6°F-3.6°C 60% 1.0 mph W1.6 kmh W 6.1 mph9.8 kmh 29.36 in994.2 mb 0.00 in0.0 mm 0.00 in0.0 mm 0.00 in0.0 mm
02:30 AM 37.9°F3.3°C 25.3°F-3.7°C 60% Calm Calm -- 29.36 in994.2 mb 0.00 in0.0 mm 0.00 in0.0 mm 0.00 in0.0 mm
02:45 AM 37.9°F3.3°C 25.3°F-3.7°C 60% 1.0 mph NW1.6 kmh NW 5.4 mph8.7 kmh 29.36 in994.2 mb 0.00 in0.0 mm 0.00 in0.0 mm 0.00 in0.0 mm
03:00 AM 38.1°F3.4°C 25.4°F-3.7°C 60% 2.1 mph NNW3.4 kmh NNW 6.1 mph9.8 kmh 29.36 in994.2 mb 0.00 in0.0 mm 0.00 in0.0 mm 0.00 in0.0 mm
03:15 AM 38.5°F3.6°C 25.8°F-3.4°C 60% 3.3 mph NNW5.3 kmh NNW 9.3 mph15.0 kmh 29.39 in995.3 mb 0.00 in0.0 mm 0.00 in0.0 mm 0.00 in0.0 mm
03:30 AM 38.1°F3.4°C 25.4°F-3.7°C 60% 0.3 mph NNW0.5 kmh NNW 4.3 mph6.9 kmh 29.39 in995.3 mb 0.00 in0.0 mm 0.00 in0.0 mm 0.00 in0.0 mm
03:45 AM 37.6°F3.1°C 24.9°F-3.9°C 60% Calm Calm -- 29.39 in995.3 mb 0.00 in0.0 mm 0.00 in0.0 mm 0.00 in0.0 mm
04:00 AM 37.8°F3.2°C 25.1°F-3.8°C 60% 2.8 mph N4.5 kmh N 8.9 mph14.3 kmh 29.39 in995.3 mb 0.00 in0.0 mm 0.00 in0.0 mm 0.00 in0.0 mm
04:15 AM 38.3°F3.5°C 25.6°F-3.6°C 60% 5.5 mph N8.9 kmh N 11.8 mph19.0 kmh 29.39 in995.3 mb 0.00 in0.0 mm 0.00 in0.0 mm 0.00 in0.0 mm
04:30 AM 39.0°F3.9°C 25.5°F-3.6°C 58% 6.0 mph N9.7 kmh N 12.2 mph19.6 kmh 29.39 in995.3 mb 0.00 in0.0 mm 0.00 in0.0 mm 0.00 in0.0 mm
04:45 AM 39.2°F4.0°C 25.2°F-3.8°C 57% 6.9 mph N11.1 kmh N 13.6 mph21.9 kmh 29.41 in995.9 mb 0.00 in0.0 mm 0.00 in0.0 mm 0.00 in0.0 mm
05:00 AM 39.7°F4.3°C 24.9°F-3.9°C 55% 7.2 mph NNW11.6 kmh NNW 14.3 mph23.0 kmh 29.41 in995.9 mb 0.00 in0.0 mm 0.00 in0.0 mm 0.00 in0.0 mm
05:15 AM 39.6°F4.2°C 24.7°F-4.1°C 55% 5.8 mph NNW9.3 kmh NNW 11.8 mph19.0 kmh 29.45 in997.3 mb 0.00 in0.0 mm 0.00 in0.0 mm 0.00 in0.0 mm
05:30 AM 39.0°F3.9°C 24.2°F-4.3°C 55% 4.4 mph N7.1 kmh N 9.7 mph15.6 kmh 29.45 in997.3 mb 0.00 in0.0 mm 0.00 in0.0 mm 0.00 in0.0 mm
05:46 AM 38.3°F3.5°C 23.5°F-4.7°C 55% 1.6 mph NW2.6 kmh NW 5.7 mph9.2 kmh 29.45 in997.3 mb 0.00 in0.0 mm 0.00 in0.0 mm 0.00 in0.0 mm
06:00 AM 38.1°F3.4°C 23.4°F-4.8°C 55% 3.4 mph NW5.5 kmh NW 7.2 mph11.6 kmh 29.45 in997.3 mb 0.00 in0.0 mm 0.00 in0.0 mm 0.00 in0.0 mm
06:15 AM 37.8°F3.2°C 23.0°F-5.0°C 55% 1.6 mph NW2.6 kmh NW 9.3 mph15.0 kmh 29.45 in997.3 mb 0.00 in0.0 mm 0.00 in0.0 mm 0.00 in0.0 mm
06:30 AM 37.8°F3.2°C 23.0°F-5.0°C 55% 5.1 mph N8.2 kmh N 10.0 mph16.1 kmh 29.45 in997.3 mb 0.00 in0.0 mm 0.00 in0.0 mm 0.00 in0.0 mm
06:45 AM 37.9°F3.3°C 22.8°F-5.1°C 54% 6.9 mph N11.1 kmh N 12.9 mph20.8 kmh 29.47 in998.0 mb 0.00 in0.0 mm 0.00 in0.0 mm 0.00 in0.0 mm
07:00 AM 37.6°F3.1°C 22.4°F-5.3°C 54% 1.7 mph NNW2.7 kmh NNW 6.1 mph9.8 kmh 29.47 in998.0 mb 0.00 in0.0 mm 0.00 in0.0 mm 0.00 in0.0 mm
07:15 AM 37.4°F3.0°C 22.3°F-5.4°C 54% 3.3 mph NNW5.3 kmh NNW 8.6 mph13.8 kmh 29.50 in999.0 mb 0.00 in0.0 mm 0.00 in0.0 mm 0.00 in0.0 mm
07:30 AM 37.2°F2.9°C 22.1°F-5.5°C 54% 2.8 mph NNW4.5 kmh NNW 8.6 mph13.8 kmh 29.50 in999.0 mb 0.00 in0.0 mm 0.00 in0.0 mm 0.00 in0.0 mm
07:45 AM 36.7°F2.6°C 21.6°F-5.8°C 54% 0.2 mph W0.3 kmh W 3.9 mph6.3 kmh 29.50 in999.0 mb 0.00 in0.0 mm 0.00 in0.0 mm 0.00 in0.0 mm
08:00 AM 37.2°F2.9°C 22.1°F-5.5°C 54% 3.5 mph NW5.6 kmh NW 7.9 mph12.7 kmh 29.50 in999.0 mb 0.00 in0.0 mm 0.00 in0.0 mm 0.00 in0.0 mm
08:15 AM 37.8°F3.2°C 22.6°F-5.2°C 54% 3.0 mph NNW4.8 kmh NNW 7.9 mph12.7 kmh 29.50 in999.0 mb 0.00 in0.0 mm 0.00 in0.0 mm 0.00 in0.0 mm
08:30 AM 38.3°F3.5°C 23.1°F-4.9°C 54% 3.3 mph NNW5.3 kmh NNW 8.9 mph14.3 kmh 29.53 in1000.0 mb 0.00 in0.0 mm 0.00 in0.0 mm 0.00 in0.0 mm
08:45 AM 39.0°F3.9°C 23.8°F-4.6°C 54% 4.7 mph N7.6 kmh N 10.4 mph16.7 kmh 29.53 in1000.0 mb 0.00 in0.0 mm 0.00 in0.0 mm 0.00 in0.0 mm
09:00 AM 39.7°F4.3°C 24.0°F-4.4°C 53% 5.8 mph N9.3 kmh N 11.8 mph19.0 kmh 29.53 in1000.0 mb 0.00 in0.0 mm 0.00 in0.0 mm 0.00 in0.0 mm
09:15 AM 40.5°F4.7°C 24.7°F-4.1°C 53% 6.0 mph N9.7 kmh N 11.5 mph18.5 kmh 29.53 in1000.0 mb 0.00 in0.0 mm 0.00 in0.0 mm 0.00 in0.0 mm
09:30 AM 41.2°F5.1°C 25.3°F-3.7°C 53% 3.6 mph NNW5.8 kmh NNW 8.9 mph14.3 kmh 29.56 in1001.0 mb 0.00 in0.0 mm 0.00 in0.0 mm 0.00 in0.0 mm
09:45 AM 42.1°F5.6°C 25.7°F-3.5°C 52% 5.5 mph NNW8.9 kmh NNW 12.9 mph20.8 kmh 29.56 in1001.0 mb 0.00 in0.0 mm 0.00 in0.0 mm 0.00 in0.0 mm
10:00 AM 42.8°F6.0°C 26.4°F-3.1°C 52% 6.0 mph NNW9.7 kmh NNW 13.6 mph21.9 kmh 29.56 in1001.0 mb 0.00 in0.0 mm 0.00 in0.0 mm 0.00 in0.0 mm
10:15 AM 43.5°F6.4°C 26.6°F-3.0°C 51% 7.1 mph NNW11.4 kmh NNW 14.0 mph22.5 kmh 29.56 in1001.0 mb 0.00 in0.0 mm 0.00 in0.0 mm 0.00 in0.0 mm
10:30 AM 44.1°F6.7°C 26.6°F-3.0°C 50% 6.1 mph NNW9.8 kmh NNW 11.8 mph19.0 kmh 29.56 in1001.0 mb 0.00 in0.0 mm 0.00 in0.0 mm 0.00 in0.0 mm
10:45 AM 44.6°F7.0°C 25.6°F-3.6°C 47% 6.7 mph NNW10.8 kmh NNW 16.1 mph25.9 kmh 29.59 in1002.0 mb 0.00 in0.0 mm 0.00 in0.0 mm 0.00 in0.0 mm
11:00 AM 45.1°F7.3°C 25.6°F-3.6°C 46% 5.7 mph N9.2 kmh N 14.0 mph22.5 kmh 29.59 in1002.0 mb 0.00 in0.0 mm 0.00 in0.0 mm 0.00 in0.0 mm
11:15 AM 45.7°F7.6°C 25.0°F-3.9°C 44% 8.2 mph N13.2 kmh N 16.1 mph25.9 kmh 29.59 in1002.0 mb 0.00 in0.0 mm 0.00 in0.0 mm 0.00 in0.0 mm
11:30 AM 46.2°F7.9°C 24.9°F-3.9°C 43% 7.3 mph N11.7 kmh N 16.1 mph25.9 kmh 29.59 in1002.0 mb 0.00 in0.0 mm 0.00 in0.0 mm 0.00 in0.0 mm
11:45 AM 46.6°F8.1°C 23.5°F-4.7°C 40% 9.2 mph NNW14.8 kmh NNW 17.5 mph28.2 kmh 29.59 in1002.0 mb 0.00 in0.0 mm 0.00 in0.0 mm 0.00 in0.0 mm
12:00 PM 46.9°F8.3°C 23.2°F-4.9°C 39% 8.8 mph NNW14.2 kmh NNW 20.0 mph32.2 kmh 29.62 in1003.0 mb 0.00 in0.0 mm 0.00 in0.0 mm 0.00 in0.0 mm
12:15 PM 47.3°F8.5°C 23.6°F-4.7°C 39% 7.2 mph NNW11.6 kmh NNW 15.4 mph24.8 kmh 29.62 in1003.0 mb 0.00 in0.0 mm 0.00 in0.0 mm 0.00 in0.0 mm
12:30 PM 47.7°F8.7°C 23.3°F-4.8°C 38% 8.4 mph NNW13.5 kmh NNW 17.5 mph28.2 kmh 29.62 in1003.0 mb 0.00 in0.0 mm 0.00 in0.0 mm 0.00 in0.0 mm
12:45 PM 48.0°F8.9°C 24.2°F-4.3°C 39% 7.0 mph NNW11.3 kmh NNW 15.7 mph25.3 kmh 29.62 in1003.0 mb 0.00 in0.0 mm 0.00 in0.0 mm 0.00 in0.0 mm
01:00 PM 48.2°F9.0°C 25.0°F-3.9°C 40% 8.1 mph NW13.0 kmh NW 15.0 mph24.1 kmh 29.62 in1003.0 mb 0.00 in0.0 mm 0.00 in0.0 mm 0.00 in0.0 mm
01:15 PM 48.6°F9.2°C 25.9°F-3.4°C 41% 7.4 mph NW11.9 kmh NW 14.0 mph22.5 kmh 29.62 in1003.0 mb 0.00 in0.0 mm 0.00 in0.0 mm 0.00 in0.0 mm
01:30 PM 48.7°F9.3°C 26.1°F-3.3°C 41% 7.3 mph NNW11.7 kmh NNW 15.7 mph25.3 kmh 29.59 in1002.0 mb 0.00 in0.0 mm 0.00 in0.0 mm 0.00 in0.0 mm
01:47 PM 48.9°F9.4°C 28.5°F-1.9°C 45% 7.9 mph NW12.7 kmh NW 16.5 mph26.6 kmh 29.59 in1002.0 mb 0.00 in0.0 mm 0.00 in0.0 mm 0.00 in0.0 mm
02:00 PM 48.7°F9.3°C 27.8°F-2.3°C 44% 8.5 mph NW13.7 kmh NW 14.0 mph22.5 kmh 29.59 in1002.0 mb 0.00 in0.0 mm 0.00 in0.0 mm 0.00 in0.0 mm
02:15 PM 48.6°F9.2°C 27.6°F-2.4°C 44% 8.6 mph NW13.8 kmh NW 15.0 mph24.1 kmh 29.59 in1002.0 mb 0.00 in0.0 mm 0.00 in0.0 mm 0.00 in0.0 mm
02:30 PM 48.4°F9.1°C 28.0°F-2.2°C 45% 8.2 mph NW13.2 kmh NW 17.5 mph28.2 kmh 29.59 in1002.0 mb 0.00 in0.0 mm 0.00 in0.0 mm 0.00 in0.0 mm
02:45 PM 48.0°F8.9°C 28.2°F-2.1°C 46% 6.9 mph NW11.1 kmh NW 15.7 mph25.3 kmh 29.59 in1002.0 mb 0.00 in0.0 mm 0.00 in0.0 mm 0.00 in0.0 mm
03:00 PM 48.0°F8.9°C 28.7°F-1.8°C 47% 6.1 mph NW9.8 kmh NW 12.5 mph20.1 kmh 29.59 in1002.0 mb 0.00 in0.0 mm 0.00 in0.0 mm 0.00 in0.0 mm
03:15 PM 47.5°F8.6°C 28.2°F-2.1°C 47% 3.8 mph NW6.1 kmh NW 10.4 mph16.7 kmh 29.62 in1003.0 mb 0.00 in0.0 mm 0.00 in0.0 mm 0.00 in0.0 mm
03:30 PM 46.9°F8.3°C 28.3°F-2.1°C 48% 4.8 mph W7.7 kmh W 12.2 mph19.6 kmh 29.59 in1002.0 mb 0.00 in0.0 mm 0.00 in0.0 mm 0.00 in0.0 mm
03:45 PM 46.9°F8.3°C 28.8°F-1.8°C 49% 4.8 mph W7.7 kmh W 11.5 mph18.5 kmh 29.59 in1002.0 mb 0.00 in0.0 mm 0.00 in0.0 mm 0.00 in0.0 mm
04:00 PM 46.6°F8.1°C 28.9°F-1.7°C 50% 3.7 mph W6.0 kmh W 11.8 mph19.0 kmh 29.59 in1002.0 mb 0.00 in0.0 mm 0.00 in0.0 mm 0.00 in0.0 mm
04:15 PM 46.6°F8.1°C 28.9°F-1.7°C 50% 3.0 mph W4.8 kmh W 7.9 mph12.7 kmh 29.59 in1002.0 mb 0.00 in0.0 mm 0.00 in0.0 mm 0.00 in0.0 mm
04:30 PM 46.4°F8.0°C 29.2°F-1.6°C 51% 2.5 mph W4.0 kmh W 9.3 mph15.0 kmh 29.59 in1002.0 mb 0.00 in0.0 mm 0.00 in0.0 mm 0.00 in0.0 mm
04:45 PM 46.0°F7.8°C 28.9°F-1.7°C 51% 4.1 mph W6.6 kmh W 10.4 mph16.7 kmh 29.56 in1001.0 mb 0.00 in0.0 mm 0.00 in0.0 mm 0.00 in0.0 mm
05:00 PM 45.7°F7.6°C 28.6°F-1.9°C 51% 2.6 mph W4.2 kmh W 9.3 mph15.0 kmh 29.56 in1001.0 mb 0.00 in0.0 mm 0.00 in0.0 mm 0.00 in0.0 mm
05:15 PM 45.0°F7.2°C 27.9°F-2.3°C 51% 0.9 mph W1.4 kmh W 8.6 mph13.8 kmh 29.53 in1000.0 mb 0.00 in0.0 mm 0.00 in0.0 mm 0.00 in0.0 mm
05:30 PM 44.1°F6.7°C 27.5°F-2.5°C 52% 0.1 mph W0.2 kmh W 3.9 mph6.3 kmh 29.56 in1001.0 mb 0.00 in0.0 mm 0.00 in0.0 mm 0.00 in0.0 mm
05:45 PM 43.2°F6.2°C 27.2°F-2.7°C 53% Calm Calm -- 29.53 in1000.0 mb 0.00 in0.0 mm 0.00 in0.0 mm 0.00 in0.0 mm
06:00 PM 42.8°F6.0°C 26.8°F-2.9°C 53% 1.3 mph W2.1 kmh W 7.2 mph11.6 kmh 29.56 in1001.0 mb 0.00 in0.0 mm 0.00 in0.0 mm 0.00 in0.0 mm
06:15 PM 43.3°F6.3°C 28.2°F-2.1°C 55% 1.0 mph W1.6 kmh W 5.7 mph9.2 kmh 29.56 in1001.0 mb 0.00 in0.0 mm 0.00 in0.0 mm 0.00 in0.0 mm
06:30 PM 43.7°F6.5°C 29.0°F-1.7°C 56% 2.5 mph W4.0 kmh W 8.6 mph13.8 kmh 29.56 in1001.0 mb 0.00 in0.0 mm 0.00 in0.0 mm 0.00 in0.0 mm
06:45 PM 43.9°F6.6°C 29.6°F-1.3°C 57% 3.0 mph W4.8 kmh W 7.9 mph12.7 kmh 29.53 in1000.0 mb 0.00 in0.0 mm 0.00 in0.0 mm 0.00 in0.0 mm
07:00 PM 44.4°F6.9°C 30.1°F-1.1°C 57% 4.4 mph W7.1 kmh W 12.2 mph19.6 kmh 29.53 in1000.0 mb 0.00 in0.0 mm 0.00 in0.0 mm 0.00 in0.0 mm
07:15 PM 44.4°F6.9°C 30.6°F-0.8°C 58% 1.8 mph W2.9 kmh W 9.7 mph15.6 kmh 29.53 in1000.0 mb 0.00 in0.0 mm 0.00 in0.0 mm 0.00 in0.0 mm
07:30 PM 44.8°F7.1°C 31.3°F-0.4°C 59% 5.0 mph W8.0 kmh W 12.5 mph20.1 kmh 29.50 in999.0 mb 0.00 in0.0 mm 0.00 in0.0 mm 0.00 in0.0 mm
07:45 PM 45.3°F7.4°C 31.8°F-0.1°C 59% 5.0 mph WNW8.0 kmh WNW 15.4 mph24.8 kmh 29.50 in999.0 mb 0.00 in0.0 mm 0.00 in0.0 mm 0.00 in0.0 mm
08:00 PM 45.3°F7.4°C 32.2°F0.1°C 60% 5.4 mph W8.7 kmh W 11.8 mph19.0 kmh 29.50 in999.0 mb 0.00 in0.0 mm 0.00 in0.0 mm 0.00 in0.0 mm
08:15 PM 45.3°F7.4°C 32.2°F0.1°C 60% 5.3 mph WNW8.5 kmh WNW 14.7 mph23.7 kmh 29.50 in999.0 mb 0.00 in0.0 mm 0.00 in0.0 mm 0.00 in0.0 mm
08:30 PM 45.3°F7.4°C 32.2°F0.1°C 60% 5.7 mph W9.2 kmh W 14.0 mph22.5 kmh 29.47 in998.0 mb 0.00 in0.0 mm 0.00 in0.0 mm 0.00 in0.0 mm
08:45 PM 45.3°F7.4°C 32.2°F0.1°C 60% 6.0 mph W9.7 kmh W 20.8 mph33.5 kmh 29.47 in998.0 mb 0.00 in0.0 mm 0.00 in0.0 mm 0.00 in0.0 mm
09:00 PM 45.7°F7.6°C 33.0°F0.6°C 61% 7.3 mph W11.7 kmh W 16.8 mph27.0 kmh 29.47 in998.0 mb 0.00 in0.0 mm 0.00 in0.0 mm 0.00 in0.0 mm
09:15 PM 46.0°F7.8°C 33.3°F0.7°C 61% 6.5 mph W10.5 kmh W 16.5 mph26.6 kmh 29.47 in998.0 mb 0.00 in0.0 mm 0.00 in0.0 mm 0.00 in0.0 mm
09:30 PM 46.6°F8.1°C 34.7°F1.5°C 63% 7.7 mph W12.4 kmh W 17.5 mph28.2 kmh 29.47 in998.0 mb 0.00 in0.0 mm 0.00 in0.0 mm 0.00 in0.0 mm
09:46 PM 46.9°F8.3°C 35.4°F1.9°C 64% 5.5 mph W8.9 kmh W 9.6 mph15.4 kmh 29.59 in1002.0 mb 0.00 in0.0 mm 0.00 in0.0 mm 0.00 in0.0 mm
09:47 PM 47.1°F8.4°C 35.6°F2.0°C 64% 5.5 mph W8.9 kmh W 9.6 mph15.4 kmh 29.45 in997.3 mb 0.00 in0.0 mm 0.00 in0.0 mm 0.00 in0.0 mm
09:48 PM 47.1°F8.4°C 35.6°F2.0°C 64% 6.8 mph WNW10.9 kmh WNW 12.9 mph20.8 kmh 29.45 in997.3 mb 0.00 in0.0 mm 0.00 in0.0 mm 0.00 in0.0 mm
09:49 PM 47.1°F8.4°C 35.6°F2.0°C 64% 6.5 mph WNW10.5 kmh WNW 12.9 mph20.8 kmh 29.45 in997.3 mb 0.00 in0.0 mm 0.00 in0.0 mm 0.00 in0.0 mm
09:50 PM 47.1°F8.4°C 35.6°F2.0°C 64% 6.9 mph W11.1 kmh W 12.9 mph20.8 kmh 29.45 in997.3 mb 0.00 in0.0 mm 0.00 in0.0 mm 0.00 in0.0 mm
10:00 PM 47.3°F8.5°C 36.1°F2.3°C 65% 6.6 mph WNW10.6 kmh WNW 16.1 mph25.9 kmh 29.41 in995.9 mb 0.00 in0.0 mm 0.00 in0.0 mm 0.00 in0.0 mm
10:15 PM 47.3°F8.5°C 36.5°F2.5°C 66% 7.0 mph W11.3 kmh W 19.0 mph30.6 kmh 29.45 in997.3 mb 0.00 in0.0 mm 0.00 in0.0 mm 0.00 in0.0 mm
10:30 PM 47.7°F8.7°C 37.6°F3.1°C 68% 5.0 mph W8.0 kmh W 15.0 mph24.1 kmh 29.41 in995.9 mb 0.00 in0.0 mm 0.00 in0.0 mm 0.00 in0.0 mm
10:45 PM 48.4°F9.1°C 41.2°F5.1°C 76% 8.7 mph W14.0 kmh W 24.3 mph39.1 kmh 29.41 in995.9 mb 0.00 in0.0 mm 0.00 in0.0 mm 0.00 in0.0 mm
11:00 PM 48.7°F9.3°C 42.2°F5.7°C 78% 7.8 mph WNW12.6 kmh WNW 19.7 mph31.7 kmh 29.39 in995.3 mb 0.00 in0.0 mm 0.00 in0.0 mm 0.00 in0.0 mm
11:15 PM 48.9°F9.4°C 42.7°F5.9°C 79% 8.4 mph W13.5 kmh W 22.9 mph36.9 kmh 29.41 in995.9 mb 0.00 in0.0 mm 0.00 in0.0 mm 0.00 in0.0 mm
11:30 PM 49.1°F9.5°C 43.2°F6.2°C 80% 6.7 mph W10.8 kmh W 16.8 mph27.0 kmh 29.39 in995.3 mb 0.00 in0.0 mm 0.00 in0.0 mm 0.00 in0.0 mm
11:45 PM 49.3°F9.6°C 43.7°F6.5°C 81% 6.6 mph W10.6 kmh W 17.5 mph28.2 kmh 29.36 in994.2 mb 0.00 in0.0 mm 0.00 in0.0 mm 0.00 in0.0 mm